Time;durP1;ratioP1;P1;durP2;ratioP2;P2;SDS_P1;SDS_P2;PMS_P1;PMS_P2;Temp;Humidity;BMP_temperature;BMP_pressure;BME280_temperature;BME280_humidity;BME280_pressure;Samples;Min_cycle;Max_cycle;Signal;HPM_P1;HPM_P2
2023/05/13 00:02:15;;;;;;;22.33;9.23;;;;;;;12.53;59.50;150439.28;5063604;28;20029;-65
2023/05/13 00:04:41;;;;;;;24.38;9.13;;;;;;;12.50;59.55;150430.28;5043123;28;20025;-65
2023/05/13 00:07:07;;;;;;;25.30;9.75;;;;;;;12.42;59.82;150411.03;5060719;28;20029;-64
2023/05/13 00:09:32;;;;;;;18.52;9.55;;;;;;;12.44;59.68;150416.16;5053127;28;20025;-65
2023/05/13 00:11:58;;;;;;;13.75;9.23;;;;;;;12.48;60.60;150426.44;5063708;28;20025;-65
2023/05/13 00:14:24;;;;;;;20.80;9.75;;;;;;;12.47;60.45;150422.59;5064378;28;20326;-64
2023/05/13 00:16:49;;;;;;;17.98;8.27;;;;;;;12.43;59.49;150414.88;5046436;28;20040;-65
2023/05/13 00:19:15;;;;;;;20.85;9.15;;;;;;;12.42;59.93;150411.03;5064379;28;20045;-65
2023/05/13 00:21:41;;;;;;;15.60;8.05;;;;;;;12.36;56.46;150395.66;5064084;28;20029;-65
2023/05/13 00:24:07;;;;;;;17.63;8.18;;;;;;;12.34;57.45;150391.78;5056565;28;20068;-65
2023/05/13 00:26:32;;;;;;;27.95;8.50;;;;;;;12.39;55.77;150404.59;5049522;28;20035;-66
2023/05/13 00:28:58;;;;;;;16.65;8.43;;;;;;;12.41;56.15;150408.47;5043178;28;20022;-65
2023/05/13 00:31:23;;;;;;;14.95;7.72;;;;;;;12.40;56.27;150407.19;5062281;28;20025;-65
2023/05/13 00:33:49;;;;;;;13.63;8.48;;;;;;;12.43;56.70;150413.63;5052696;28;20305;-65
2023/05/13 00:36:15;;;;;;;12.68;7.45;;;;;;;12.47;56.07;150423.91;5063798;28;20032;-64
2023/05/13 00:38:42;;;;;;;12.95;7.07;;;;;;;12.53;54.99;150438.03;5060000;28;20060;-63
2023/05/13 00:41:08;;;;;;;13.10;7.28;;;;;;;12.53;53.77;150439.28;5072833;28;20060;-64
2023/05/13 00:43:34;;;;;;;9.25;6.03;;;;;;;12.56;54.53;150447.00;5063966;28;20028;-64
2023/05/13 00:46:00;;;;;;;9.95;6.22;;;;;;;12.53;54.03;150438.03;5070463;28;20051;-64
2023/05/13 00:48:26;;;;;;;10.30;6.40;;;;;;;12.62;54.61;150459.84;5063788;28;20292;-64
2023/05/13 00:50:51;;;;;;;11.07;6.68;;;;;;;12.61;55.40;150458.53;5063332;28;20032;-65
2023/05/13 00:53:17;;;;;;;9.88;6.35;;;;;;;12.59;54.52;150454.69;5064009;28;20032;-64
2023/05/13 00:55:44;;;;;;;13.52;6.35;;;;;;;12.59;55.06;150454.69;5063457;28;20036;-64
2023/05/13 00:58:11;;;;;;;8.27;5.60;;;;;;;12.57;54.62;150448.31;5047582;28;20055;-64
2023/05/13 01:01:00;;;;;;;12.45;6.28;;;;;;;12.58;54.92;150450.84;5054778;28;20028;-64
2023/05/13 01:03:45;;;;;;;10.02;5.90;;;;;;;12.46;53.50;150420.06;5015735;28;20108;-64
2023/05/13 01:06:20;;;;;;;9.95;5.50;;;;;;;12.55;55.37;150443.16;5063156;28;20318;-65
2023/05/13 01:09:07;;;;;;;8.95;5.55;;;;;;;12.52;54.71;150435.44;5059038;28;20037;-65
2023/05/13 01:11:40;;;;;;;9.70;5.85;;;;;;;12.38;55.48;150402.03;5059062;28;20075;-65
2023/05/13 01:14:15;;;;;;;10.77;6.30;;;;;;;12.35;55.40;150394.34;5063466;28;20037;-65
2023/05/13 01:17:02;;;;;;;9.55;5.70;;;;;;;12.42;55.17;150412.31;5026203;28;20047;-64
2023/05/13 01:19:33;;;;;;;9.88;6.05;;;;;;;12.38;55.56;150402.03;5061677;28;20033;-63
2023/05/13 01:21:59;;;;;;;10.60;6.03;;;;;;;12.33;54.74;150387.94;5062837;28;20397;-63
2023/05/13 01:24:24;;;;;;;13.18;6.28;;;;;;;12.34;54.66;150391.78;5062493;28;20025;-64
2023/05/13 01:26:50;;;;;;;10.25;5.95;;;;;;;12.29;55.07;150377.66;5057299;28;20056;-64
2023/05/13 01:29:16;;;;;;;11.75;5.53;;;;;;;12.22;55.19;150360.97;5051513;28;20154;-63
2023/05/13 01:31:42;;;;;;;11.13;6.15;;;;;;;12.19;55.03;150353.25;5062696;28;20089;-65
2023/05/13 01:34:10;;;;;;;13.13;6.57;;;;;;;12.22;55.98;150362.22;5062948;28;20037;-64
2023/05/13 01:36:38;;;;;;;12.13;6.60;;;;;;;12.10;56.31;150331.44;5062080;28;20051;-63
2023/05/13 01:39:04;;;;;;;16.80;7.25;;;;;;;12.16;57.02;150345.56;5057210;28;20071;-64
2023/05/13 01:41:30;;;;;;;12.75;6.60;;;;;;;12.12;56.88;150336.56;5073182;28;20100;-65
2023/05/13 01:43:56;;;;;;;10.57;6.35;;;;;;;12.04;57.15;150317.31;5062909;28;20040;-64
2023/05/13 01:46:22;;;;;;;16.90;6.07;;;;;;;12.03;58.21;150314.75;5062331;28;20041;-64
2023/05/13 01:48:47;;;;;;;10.30;6.35;;;;;;;12.03;57.79;150314.75;5062701;28;20202;-63
2023/05/13 01:51:13;;;;;;;16.65;6.40;;;;;;;12.03;57.96;150313.47;5061683;28;20076;-64
2023/05/13 01:53:38;;;;;;;14.95;7.30;;;;;;;12.01;58.27;150308.31;5059689;28;20034;-63
2023/05/13 01:56:07;;;;;;;16.85;6.93;;;;;;;12.00;59.35;150305.72;5057852;28;20029;-63
2023/05/13 01:58:33;;;;;;;12.38;6.47;;;;;;;11.96;58.47;150296.78;5061725;28;20028;-64
2023/05/13 02:00:59;;;;;;;14.23;7.25;;;;;;;11.88;59.24;150276.16;5062396;28;20083;-64
2023/05/13 02:03:25;;;;;;;9.50;6.50;;;;;;;11.89;59.57;150280.00;5053292;28;20041;-64
2023/05/13 02:05:50;;;;;;;9.98;6.95;;;;;;;11.80;59.94;150255.63;5046402;28;20056;-66
2023/05/13 02:08:16;;;;;;;11.60;6.35;;;;;;;11.78;61.04;150251.78;5062581;28;20033;-66
2023/05/13 02:10:41;;;;;;;13.95;6.43;;;;;;;11.66;60.33;150221.00;5061868;28;20590;-65
2023/05/13 02:13:07;;;;;;;14.98;6.80;;;;;;;11.71;59.35;150235.13;5062528;28;20152;-65
2023/05/13 02:15:33;;;;;;;11.73;6.05;;;;;;;11.76;60.14;150246.66;5061910;28;20090;-64
2023/05/13 02:17:58;;;;;;;10.73;6.32;;;;;;;11.77;59.94;150249.19;5062378;28;20059;-65
2023/05/13 02:20:44;;;;;;;10.35;6.22;;;;;;;11.80;59.17;150255.63;5047239;28;20033;-66
2023/05/13 02:23:10;;;;;;;10.88;6.50;;;;;;;11.82;59.08;150262.03;5062180;28;20033;-65
2023/05/13 02:25:36;;;;;;;10.82;6.40;;;;;;;11.86;58.38;150272.31;5061016;28;20048;-66
2023/05/13 02:28:02;;;;;;;8.68;6.35;;;;;;;12.02;57.09;150310.88;5047703;28;20036;-65
2023/05/13 02:30:27;;;;;;;12.20;6.38;;;;;;;12.39;55.50;150403.34;5051230;28;20336;-64
2023/05/13 02:32:53;;;;;;;13.27;6.30;;;;;;;12.63;54.89;150463.72;5057222;28;20038;-63
2023/05/13 02:35:21;;;;;;;11.50;5.75;;;;;;;12.70;55.66;150480.41;5042527;28;20179;-64
2023/05/13 02:37:47;;;;;;;9.43;5.65;;;;;;;12.90;54.02;150530.50;5061380;28;20092;-65
2023/05/13 02:40:13;;;;;;;10.48;5.60;;;;;;;12.97;53.96;150547.19;5072052;28;20290;-65
2023/05/13 02:42:39;;;;;;;10.25;5.10;;;;;;;13.04;52.56;150565.16;5051607;28;20033;-65
2023/05/13 02:45:05;;;;;;;10.70;5.40;;;;;;;13.19;51.93;150603.72;5048247;28;20404;-67
2023/05/13 02:47:30;;;;;;;7.47;4.88;;;;;;;13.33;52.39;150638.44;5061834;28;20283;-65
2023/05/13 02:49:56;;;;;;;9.32;5.22;;;;;;;13.31;51.48;150633.31;5064472;28;20039;-65
2023/05/13 02:52:22;;;;;;;10.32;4.57;;;;;;;13.39;51.40;150652.63;5065281;28;20105;-65
2023/05/13 02:54:47;;;;;;;7.72;4.60;;;;;;;13.52;51.79;150686.00;5053816;28;20033;-65
2023/05/13 02:57:13;;;;;;;8.68;5.28;;;;;;;13.47;50.85;150673.19;5061127;28;20071;-64
2023/05/13 02:59:39;;;;;;;8.60;5.10;;;;;;;13.54;51.51;150691.19;5065877;28;20032;-65
2023/05/13 03:02:04;;;;;;;10.48;4.78;;;;;;;13.68;51.49;150724.59;5065593;28;20376;-65
2023/05/13 03:04:30;;;;;;;8.68;5.43;;;;;;;13.69;51.41;150727.16;5047840;28;20032;-65
2023/05/13 03:06:56;;;;;;;9.10;4.90;;;;;;;13.68;50.16;150724.59;5058278;28;20102;-66
2023/05/13 03:09:21;;;;;;;7.80;5.47;;;;;;;13.75;51.17;150743.91;5065830;28;20045;-64
2023/05/13 03:11:47;;;;;;;10.43;5.32;;;;;;;13.86;50.14;150770.88;5065289;28;20329;-65
2023/05/13 03:14:12;;;;;;;10.10;4.97;;;;;;;13.88;49.84;150776.03;5081288;28;20034;-64
2023/05/13 03:16:38;;;;;;;6.57;4.85;;;;;;;13.98;49.87;150801.72;5064984;28;20044;-64
2023/05/13 03:19:03;;;;;;;12.15;5.00;;;;;;;14.02;50.47;150810.72;5051638;28;20064;-64
2023/05/13 03:21:29;;;;;;;10.05;5.03;;;;;;;14.07;50.21;150822.31;5054581;28;20233;-64
2023/05/13 03:23:54;;;;;;;7.80;4.85;;;;;;;14.13;50.17;150837.72;5065245;28;20096;-65
2023/05/13 03:26:21;;;;;;;7.32;4.80;;;;;;;14.19;50.03;150853.16;5065174;28;20041;-64
2023/05/13 03:28:46;;;;;;;9.10;4.90;;;;;;;14.29;49.86;150878.91;5064844;28;20032;-65
2023/05/13 03:31:12;;;;;;;12.57;5.43;;;;;;;14.47;50.40;150922.63;5056914;28;20025;-64
2023/05/13 03:33:37;;;;;;;6.20;4.60;;;;;;;14.62;49.79;150959.94;5065140;28;20198;-64
2023/05/13 03:36:04;;;;;;;9.95;4.72;;;;;;;14.69;49.20;150976.69;5064924;28;20020;-64
2023/05/13 03:38:30;;;;;;;8.20;4.43;;;;;;;14.80;46.90;151006.25;5064329;28;20025;-65
2023/05/13 03:40:55;;;;;;;7.75;4.57;;;;;;;14.97;47.46;151047.44;5072141;28;20476;-64
2023/05/13 03:43:21;;;;;;;8.77;4.28;;;;;;;15.38;47.21;151149.09;5048945;28;20029;-65
2023/05/13 03:45:47;;;;;;;9.57;4.20;;;;;;;15.51;46.71;151183.84;5056080;28;20119;-64
2023/05/13 03:48:14;;;;;;;9.48;4.15;;;;;;;15.55;46.16;151192.88;5064996;28;20505;-64
2023/05/13 03:50:40;;;;;;;5.43;4.00;;;;;;;15.54;46.93;151190.28;5064413;28;20559;-64
2023/05/13 03:53:06;;;;;;;4.00;3.63;;;;;;;15.58;45.66;151199.31;5065017;28;20048;-64
2023/05/13 03:55:32;;;;;;;5.80;3.65;;;;;;;15.68;46.38;151225.06;5064532;28;20035;-64
2023/05/13 03:57:57;;;;;;;7.40;4.00;;;;;;;15.73;45.46;151237.91;5051919;28;20100;-64
2023/05/13 04:00:23;;;;;;;7.00;4.05;;;;;;;15.87;46.13;151274.00;5052530;28;20032;-65
2023/05/13 04:02:49;;;;;;;7.50;4.05;;;;;;;15.96;46.57;151295.91;5064366;28;20322;-65
2023/05/13 04:05:15;;;;;;;9.27;3.80;;;;;;;16.04;44.89;151316.50;5064328;28;20187;-65
2023/05/13 04:07:41;;;;;;;7.50;3.67;;;;;;;16.10;45.22;151330.66;5063562;28;20344;-65
2023/05/13 04:10:09;;;;;;;6.40;3.63;;;;;;;16.03;45.15;151313.94;5053885;28;20053;-65
2023/05/13 04:12:36;;;;;;;7.20;3.83;;;;;;;15.94;45.83;151290.75;5063476;28;20064;-65
2023/05/13 04:15:02;;;;;;;8.35;3.60;;;;;;;16.01;44.90;151307.50;5063918;28;20036;-66
2023/05/13 04:17:29;;;;;;;4.70;3.75;;;;;;;16.11;44.94;151331.97;5063149;28;20056;-66
2023/05/13 04:19:55;;;;;;;7.60;3.65;;;;;;;16.09;45.45;151328.13;5063533;28;20229;-66
2023/05/13 04:22:20;;;;;;;6.75;3.35;;;;;;;16.05;46.25;151319.06;5063098;28;20037;-67
2023/05/13 04:24:46;;;;;;;8.82;3.83;;;;;;;15.98;46.30;151299.78;5063822;28;20032;-66
2023/05/13 04:27:12;;;;;;;8.57;3.78;;;;;;;16.08;45.86;151325.53;5063912;28;20064;-66
2023/05/13 04:29:37;;;;;;;5.85;3.42;;;;;;;16.15;46.12;151342.28;5064065;28;20025;-66
2023/05/13 04:32:03;;;;;;;7.25;3.47;;;;;;;16.13;46.71;151338.41;5062403;28;20025;-64
2023/05/13 04:34:29;;;;;;;6.63;3.35;;;;;;;16.20;46.59;151355.13;5046021;28;20025;-65
2023/05/13 04:36:54;;;;;;;7.05;3.67;;;;;;;16.26;45.97;151370.63;5056187;28;20033;-65
2023/05/13 04:39:20;;;;;;;5.40;3.20;;;;;;;16.33;45.55;151388.66;5062117;28;20074;-65
2023/05/13 04:41:45;;;;;;;8.57;3.92;;;;;;;16.49;44.80;151427.25;5062156;28;20044;-65
2023/05/13 04:44:11;;;;;;;5.57;3.35;;;;;;;16.63;45.12;151463.34;5063970;28;20025;-65
2023/05/13 04:46:39;;;;;;;5.57;3.42;;;;;;;16.80;43.50;151504.53;5063324;28;20024;-65
2023/05/13 04:49:05;;;;;;;6.55;3.33;;;;;;;17.12;42.68;151584.50;5064062;28;20033;-64
2023/05/13 04:51:31;;;;;;;14.25;4.00;;;;;;;17.37;42.84;151648.94;5055055;28;20314;-65
2023/05/13 04:53:57;;;;;;;14.75;3.97;;;;;;;17.82;42.43;151761.06;5047685;28;20025;-66
2023/05/13 04:56:23;;;;;;;6.28;3.22;;;;;;;17.93;41.59;151789.50;5063324;28;20213;-65
2023/05/13 04:58:48;;;;;;;9.48;3.83;;;;;;;18.17;40.19;151847.50;5063274;28;20090;-65
2023/05/13 05:01:14;;;;;;;5.78;3.35;;;;;;;18.44;39.35;151917.16;5063088;28;20037;-65
2023/05/13 05:03:40;;;;;;;6.72;3.08;;;;;;;18.80;39.20;152007.47;5053705;28;20030;-65
2023/05/13 05:06:05;;;;;;;7.65;3.55;;;;;;;19.17;37.70;152099.13;5049427;28;20143;-66
2023/05/13 05:08:31;;;;;;;14.65;3.30;;;;;;;19.37;36.32;152149.47;5063341;28;20032;-66
2023/05/13 05:10:59;;;;;;;6.18;2.80;;;;;;;19.65;36.54;152220.47;5063338;28;20139;-66
2023/05/13 05:13:24;;;;;;;5.55;2.70;;;;;;;19.93;36.09;152288.94;5063113;28;20024;-68
2023/05/13 05:15:50;;;;;;;8.63;3.25;;;;;;;20.22;35.72;152362.50;5055463;28;20021;-67
2023/05/13 05:18:16;;;;;;;4.47;2.85;;;;;;;20.29;34.10;152379.31;5063279;28;20033;-65
2023/05/13 05:20:41;;;;;;;3.95;3.08;;;;;;;20.84;33.72;152518.84;5062352;28;20060;-65
2023/05/13 05:23:09;;;;;;;7.15;3.00;;;;;;;21.26;33.19;152622.22;5063176;28;20326;-66
2023/05/13 05:25:35;;;;;;;3.45;2.92;;;;;;;21.38;32.57;152653.25;5062709;28;20039;-65
2023/05/13 05:28:03;;;;;;;9.55;3.30;;;;;;;21.28;33.21;152628.69;5050540;28;20075;-65
2023/05/13 05:30:38;;;;;;;6.68;2.95;;;;;;;21.14;33.64;152593.78;5054492;28;20029;-65
2023/05/13 05:33:05;;;;;;;9.95;3.22;;;;;;;21.07;34.98;152575.72;5063114;28;20052;-67
2023/05/13 05:35:32;;;;;;;4.57;2.78;;;;;;;20.93;34.87;152539.53;5062743;28;20181;-67
2023/05/13 05:37:58;;;;;;;12.13;3.15;;;;;;;20.94;34.68;152543.41;5043023;28;20021;-66
2023/05/13 05:40:23;;;;;;;10.60;3.38;;;;;;;20.82;34.02;152513.72;5069355;28;20324;-65
2023/05/13 05:42:49;;;;;;;5.45;2.42;;;;;;;20.63;33.29;152464.56;5062524;28;20036;-65
2023/05/13 05:45:14;;;;;;;6.50;2.95;;;;;;;20.90;33.11;152531.78;5062573;28;20031;-66
2023/05/13 05:47:40;;;;;;;9.23;3.20;;;;;;;20.76;32.80;152496.91;5061419;28;20039;-66
2023/05/13 05:50:06;;;;;;;12.88;3.33;;;;;;;20.74;32.05;152493.03;5042952;28;20044;-67
2023/05/13 05:52:32;;;;;;;8.88;3.60;;;;;;;20.79;33.22;152504.63;5043613;28;20034;-65
2023/05/13 05:54:57;;;;;;;5.15;2.83;;;;;;;20.75;32.35;152495.63;5053775;28;20075;-66
2023/05/13 05:57:23;;;;;;;7.03;3.08;;;;;;;20.60;33.84;152456.81;5062424;28;20025;-67
2023/05/13 05:59:50;;;;;;;4.05;2.70;;;;;;;20.48;32.39;152427.13;5062397;28;20194;-65
2023/05/13 06:02:15;;;;;;;8.55;2.90;;;;;;;20.76;32.14;152498.19;5062177;28;20039;-66
2023/05/13 06:04:41;;;;;;;6.97;3.25;;;;;;;20.79;33.26;152505.97;5044621;28;20033;-65
2023/05/13 06:07:07;;;;;;;8.60;3.08;;;;;;;20.83;34.19;152516.25;5056396;28;20066;-66
2023/05/13 06:09:33;;;;;;;6.68;3.30;;;;;;;20.69;34.75;152481.41;5061886;28;20043;-66
2023/05/13 06:11:58;;;;;;;4.97;2.88;;;;;;;20.63;33.63;152465.84;5061762;28;20017;-67
2023/05/13 06:14:24;;;;;;;4.53;2.67;;;;;;;20.58;33.24;152451.63;5062147;28;20032;-66
2023/05/13 06:16:49;;;;;;;5.20;2.90;;;;;;;20.35;33.33;152396.09;5061740;28;20039;-65
2023/05/13 06:19:15;;;;;;;6.22;2.95;;;;;;;20.46;32.64;152423.19;5048206;28;20048;-65
2023/05/13 06:21:42;;;;;;;7.35;2.92;;;;;;;20.62;33.56;152461.97;5052523;28;20025;-65
2023/05/13 06:24:08;;;;;;;4.15;2.95;;;;;;;20.51;32.33;152434.88;5061193;28;20116;-65
2023/05/13 06:26:34;;;;;;;4.80;3.05;;;;;;;20.49;32.21;152431.00;5061735;28;20028;-66
2023/05/13 06:29:00;;;;;;;6.30;2.85;;;;;;;20.41;32.18;152410.31;5008218;28;20029;-66
2023/05/13 06:31:25;;;;;;;10.25;3.80;;;;;;;20.29;31.79;152380.56;5056965;28;20382;-66
2023/05/13 06:33:51;;;;;;;9.88;3.50;;;;;;;20.43;32.83;152415.47;5051581;28;20140;-66
2023/05/13 06:36:17;;;;;;;9.43;3.10;;;;;;;20.30;31.51;152383.19;5049234;28;20250;-67
2023/05/13 06:38:42;;;;;;;10.55;3.35;;;;;;;20.28;31.51;152376.72;5061696;28;20033;-66
2023/05/13 06:41:08;;;;;;;8.63;3.20;;;;;;;20.32;31.81;152387.03;5073034;28;20063;-66
2023/05/13 06:43:33;;;;;;;4.68;3.00;;;;;;;20.57;32.42;152450.34;5061622;28;20024;-66
2023/05/13 06:45:59;;;;;;;6.97;3.80;;;;;;;20.63;32.58;152465.84;5061737;28;20029;-67
2023/05/13 06:48:25;;;;;;;9.25;2.90;;;;;;;20.45;31.52;152420.66;5055042;28;20029;-67
2023/05/13 06:50:51;;;;;;;4.20;3.10;;;;;;;20.53;31.94;152441.28;5045514;28;20029;-66
2023/05/13 06:53:16;;;;;;;5.55;3.05;;;;;;;20.65;31.76;152469.69;5060725;28;20171;-66
2023/05/13 06:55:42;;;;;;;7.70;3.50;;;;;;;20.65;31.71;152469.69;5061469;28;20040;-66
2023/05/13 06:58:08;;;;;;;7.10;3.10;;;;;;;20.74;31.39;152493.03;5031436;28;20100;-66
2023/05/13 07:00:38;;;;;;;13.50;3.35;;;;;;;20.74;31.60;152491.75;5049214;28;20037;-67
2023/05/13 07:03:04;;;;;;;6.90;3.00;;;;;;;20.63;31.54;152464.56;5058164;28;20025;-66
2023/05/13 07:05:31;;;;;;;7.35;3.20;;;;;;;20.86;31.49;152524.06;5042512;28;20063;-67
2023/05/13 07:07:56;;;;;;;6.57;2.90;;;;;;;20.79;32.13;152505.97;5061117;28;20082;-67
2023/05/13 07:10:22;;;;;;;6.97;3.25;;;;;;;20.78;31.30;152503.38;5053269;28;20044;-68
2023/05/13 07:12:48;;;;;;;9.35;2.97;;;;;;;20.77;32.93;152499.50;5061382;28;20028;-68
2023/05/13 07:15:13;;;;;;;16.45;3.50;;;;;;;20.58;30.50;152452.94;5044930;28;20025;-68
2023/05/13 07:17:39;;;;;;;12.05;3.60;;;;;;;20.43;30.64;152414.19;5061252;28;20029;-67
2023/05/13 07:20:06;;;;;;;9.57;3.28;;;;;;;20.31;30.51;152384.50;5061583;28;20052;-65
2023/05/13 07:22:31;;;;;;;10.02;3.40;;;;;;;20.60;30.96;152458.09;5061423;28;20025;-66
2023/05/13 07:24:57;;;;;;;9.10;2.90;;;;;;;20.50;30.84;152433.53;5061424;28;20052;-65
2023/05/13 07:27:22;;;;;;;8.38;3.30;;;;;;;20.54;32.13;152442.59;5055364;28;20525;-68
2023/05/13 07:29:48;;;;;;;7.30;3.47;;;;;;;20.76;31.33;152498.19;5042836;28;20036;-66
2023/05/13 07:32:13;;;;;;;6.50;3.00;;;;;;;20.71;30.09;152485.28;5061335;28;20032;-66
2023/05/13 07:34:39;;;;;;;13.80;3.58;;;;;;;20.79;30.63;152504.63;5043788;28;20044;-66
2023/05/13 07:37:05;;;;;;;8.82;2.97;;;;;;;20.74;30.85;152493.03;5059420;28;20206;-68
2023/05/13 07:39:30;;;;;;;8.50;3.03;;;;;;;20.91;30.67;152534.34;5069411;28;20029;-67
2023/05/13 07:41:56;;;;;;;5.20;2.90;;;;;;;20.82;30.20;152513.72;5072139;28;20031;-68
2023/05/13 07:44:21;;;;;;;7.40;3.33;;;;;;;20.86;30.05;152522.72;5065029;28;20036;-68
2023/05/13 07:46:52;;;;;;;9.55;3.28;;;;;;;21.05;29.91;152570.56;5057245;28;20257;-68
2023/05/13 07:49:19;;;;;;;7.45;3.00;;;;;;;21.25;30.85;152620.94;5065069;28;20021;-65
2023/05/13 07:51:45;;;;;;;9.52;3.25;;;;;;;21.22;31.04;152613.22;5055652;28;20021;-66
2023/05/13 07:54:10;;;;;;;11.88;3.42;;;;;;;21.30;29.81;152632.56;5049033;28;20048;-67
2023/05/13 07:56:37;;;;;;;5.68;3.10;;;;;;;21.17;30.51;152601.53;5064133;28;20025;-66
2023/05/13 07:59:02;;;;;;;12.43;3.35;;;;;;;21.12;29.24;152587.31;5063798;28;20032;-66
2023/05/13 08:01:28;;;;;;;9.90;2.95;;;;;;;21.27;29.54;152624.81;5064541;28;20028;-66
2023/05/13 08:03:54;;;;;;;8.68;3.70;;;;;;;21.35;29.51;152645.50;5054495;28;20041;-67
2023/05/13 08:06:20;;;;;;;7.50;3.42;;;;;;;21.42;28.57;152663.59;5052033;28;20107;-67
2023/05/13 08:08:45;;;;;;;7.00;3.10;;;;;;;21.38;28.22;152653.25;5064360;28;20033;-67
2023/05/13 08:11:12;;;;;;;7.65;2.65;;;;;;;21.21;27.84;152611.88;5064191;28;20063;-67
2023/05/13 08:13:38;;;;;;;10.57;3.03;;;;;;;21.43;28.21;152664.88;5063990;28;20044;-65
2023/05/13 08:16:05;;;;;;;6.72;2.60;;;;;;;21.37;27.97;152650.66;5063915;28;20202;-65
2023/05/13 08:18:31;;;;;;;16.85;3.40;;;;;;;21.20;27.51;152609.28;5057301;28;20025;-65
2023/05/13 08:20:57;;;;;;;3.67;2.75;;;;;;;21.37;27.28;152651.94;5032316;28;20104;-65
2023/05/13 08:23:24;;;;;;;10.55;2.95;;;;;;;21.44;27.71;152667.47;5046660;28;20066;-65
2023/05/13 08:25:50;;;;;;;11.13;3.80;;;;;;;21.22;27.67;152613.22;5063576;28;20048;-65
2023/05/13 08:28:16;;;;;;;11.80;3.35;;;;;;;21.41;28.26;152659.72;5064018;28;20252;-67
2023/05/13 08:30:43;;;;;;;7.25;3.38;;;;;;;21.45;29.11;152671.34;5063931;28;20060;-66
2023/05/13 08:33:10;;;;;;;11.98;3.45;;;;;;;21.65;28.92;152720.53;5060880;28;20083;-66
2023/05/13 08:35:36;;;;;;;12.10;3.50;;;;;;;21.65;28.17;152721.81;5045797;28;20183;-67
2023/05/13 08:38:04;;;;;;;7.57;3.38;;;;;;;21.74;27.61;152742.50;5047220;28;20297;-66
2023/05/13 08:40:30;;;;;;;4.65;3.13;;;;;;;21.82;26.79;152763.16;5057917;28;20025;-67
2023/05/13 08:43:00;;;;;;;5.80;2.70;;;;;;;22.06;27.10;152825.22;5053818;28;20104;-66
2023/05/13 08:45:28;;;;;;;5.72;2.75;;;;;;;21.70;28.06;152733.44;5063826;28;20107;-67
2023/05/13 08:48:00;;;;;;;6.40;2.78;;;;;;;22.13;27.04;152840.72;5043999;28;20045;-67
2023/05/13 08:50:27;;;;;;;;;;;;;;;22.15;26.72;152845.94;5044744;28;20076;-67
2023/05/13 08:52:53;;;;;;;10.32;3.63;;;;;;;22.15;27.22;152847.22;5061290;28;19905;-68
2023/05/13 08:55:18;;;;;;;8.70;3.08;;;;;;;21.98;27.59;152803.25;5063222;28;20127;-67
2023/05/13 08:57:44;;;;;;;5.45;3.10;;;;;;;22.10;27.58;152834.25;5055232;28;20345;-67
2023/05/13 09:00:10;;;;;;;5.38;3.08;;;;;;;22.25;28.53;152871.78;5047153;28;20036;-66
2023/05/13 09:02:36;;;;;;;7.25;3.28;;;;;;;22.21;27.77;152861.44;5063469;28;20210;-67
2023/05/13 09:05:07;;;;;;;5.85;2.92;;;;;;;22.32;28.05;152889.88;5044627;28;20049;-67
2023/05/13 09:07:34;;;;;;;10.02;2.95;;;;;;;22.32;28.14;152889.88;5061629;28;20036;-68
2023/05/13 09:10:00;;;;;;;5.30;3.17;;;;;;;22.54;29.11;152944.25;5063403;28;20028;-67
2023/05/13 09:12:44;;;;;;;6.40;3.05;;;;;;;22.61;27.90;152961.06;5063245;28;20028;-66
2023/05/13 09:15:11;;;;;;;7.85;3.72;;;;;;;22.38;28.73;152905.44;5063303;28;20025;-66
2023/05/13 09:17:46;;;;;;;7.72;3.80;;;;;;;22.38;28.11;152904.16;5063140;28;20238;-67
2023/05/13 09:20:14;;;;;;;6.25;3.67;;;;;;;22.55;28.61;152948.13;5043453;28;20025;-67
2023/05/13 09:22:50;;;;;;;6.50;3.03;;;;;;;22.54;28.16;152944.25;5046127;28;20060;-69
2023/05/13 09:25:17;;;;;;;5.57;3.25;;;;;;;22.67;28.04;152976.56;5055510;28;20031;-67
2023/05/13 09:27:48;;;;;;;6.63;3.15;;;;;;;22.72;29.08;152990.81;5054957;28;20033;-66
2023/05/13 09:30:14;;;;;;;6.03;3.13;;;;;;;22.70;27.33;152985.66;5046717;28;20086;-67
2023/05/13 09:32:41;;;;;;;7.18;3.60;;;;;;;22.72;27.73;152989.53;5062691;28;20036;-66
2023/05/13 09:35:16;;;;;;;7.35;3.58;;;;;;;22.75;26.88;152997.28;5043699;28;20028;-67
2023/05/13 09:37:45;;;;;;;8.05;3.15;;;;;;;22.84;26.67;153020.53;5061983;28;20100;-66
2023/05/13 09:40:13;;;;;;;5.13;3.25;;;;;;;22.66;27.22;152973.97;5072461;28;20047;-66
2023/05/13 09:42:43;;;;;;;6.63;3.10;;;;;;;22.74;27.26;152994.69;5063871;28;20310;-66
2023/05/13 09:45:14;;;;;;;6.25;4.05;;;;;;;22.73;27.32;152992.09;5062715;28;20105;-66
2023/05/13 09:47:40;;;;;;;7.35;4.13;;;;;;;22.58;27.12;152954.59;5062339;28;20036;-67
2023/05/13 09:50:08;;;;;;;9.55;4.18;;;;;;;22.72;27.95;152989.53;5062358;28;20028;-65
2023/05/13 09:52:35;;;;;;;8.43;4.18;;;;;;;22.63;27.73;152967.56;5047608;28;20109;-65
2023/05/13 09:55:05;;;;;;;12.13;3.90;;;;;;;22.56;27.72;152950.72;5052395;28;20540;-65
2023/05/13 09:57:31;;;;;;;6.85;3.85;;;;;;;22.58;28.08;152955.88;5056353;28;20025;-65
2023/05/13 10:00:02;;;;;;;5.88;3.75;;;;;;;22.66;28.17;152975.31;5061702;28;20067;-65
2023/05/13 10:02:29;;;;;;;8.43;3.10;;;;;;;22.79;27.70;153007.63;5045085;28;20040;-66
2023/05/13 10:04:55;;;;;;;7.03;3.08;;;;;;;22.74;26.56;152994.69;5044984;28;20053;-65
2023/05/13 10:07:24;;;;;;;4.28;3.17;;;;;;;22.82;27.64;153014.13;5058943;28;20078;-66
2023/05/13 10:09:56;;;;;;;6.43;3.10;;;;;;;22.74;28.45;152994.69;5062252;28;20064;-66
2023/05/13 10:12:24;;;;;;;6.93;3.13;;;;;;;22.72;28.31;152990.81;5057366;28;20037;-65
2023/05/13 10:14:54;;;;;;;5.50;3.28;;;;;;;22.69;28.08;152981.78;5041635;28;20096;-66
2023/05/13 10:17:22;;;;;;;6.30;3.35;;;;;;;22.83;27.77;153016.66;5061534;28;20029;-65
2023/05/13 10:19:53;;;;;;;3.45;3.15;;;;;;;22.87;28.42;153027.03;5047931;28;20195;-65
2023/05/13 10:22:30;;;;;;;4.50;3.10;;;;;;;22.98;27.46;153054.22;5066449;28;20029;-65
2023/05/13 10:24:59;;;;;;;5.10;3.35;;;;;;;23.05;29.08;153073.59;5052861;28;20052;-66
2023/05/13 10:27:28;;;;;;;6.10;3.53;;;;;;;23.04;29.03;153069.72;5053929;28;20103;-66
2023/05/13 10:29:58;;;;;;;8.57;3.45;;;;;;;22.90;28.17;153036.09;5042120;28;20033;-65
2023/05/13 10:32:26;;;;;;;8.02;3.42;;;;;;;22.98;28.47;153054.22;5061736;28;20047;-65
2023/05/13 10:35:06;;;;;;;5.68;3.25;;;;;;;22.71;27.92;152988.22;5045018;28;20088;-66
2023/05/13 10:37:50;;;;;;;12.52;3.40;;;;;;;22.48;27.99;152930.00;5045985;28;20048;-65
2023/05/13 10:40:21;;;;;;;4.97;3.33;;;;;;;22.48;28.57;152928.75;5063560;28;20032;-66
2023/05/13 10:43:08;;;;;;;9.57;3.50;;;;;;;22.57;29.60;152953.31;5061951;28;20025;-65
2023/05/13 10:45:34;;;;;;;10.40;3.50;;;;;;;22.59;29.48;152957.19;5061419;28;20108;-67
2023/05/13 10:48:07;;;;;;;8.85;3.30;;;;;;;22.68;29.03;152979.19;5042759;28;20040;-65
2023/05/13 10:50:37;;;;;;;10.00;3.92;;;;;;;22.64;28.38;152970.09;5042934;28;20085;-65
2023/05/13 10:53:08;;;;;;;4.72;3.33;;;;;;;22.62;27.84;152964.94;5062082;28;20029;-67
2023/05/13 10:55:43;;;;;;;6.88;3.97;;;;;;;22.61;28.20;152961.06;5060103;28;20198;-65
2023/05/13 10:58:11;;;;;;;5.70;3.47;;;;;;;22.50;27.60;152933.88;5069306;28;20029;-64
2023/05/13 11:00:44;;;;;;;4.35;3.50;;;;;;;22.56;28.27;152950.72;5060990;28;20078;-64
2023/05/13 11:03:19;;;;;;;9.63;2.92;;;;;;;22.68;28.14;152980.44;5059424;28;20048;-64
2023/05/13 11:06:22;;;;;;;11.90;3.10;;;;;;;22.77;28.33;153002.44;5044532;28;20044;-64
2023/05/13 11:08:50;;;;;;;5.60;3.28;;;;;;;22.64;28.04;152970.09;5061640;28;20337;-65
2023/05/13 11:11:22;;;;;;;8.15;3.40;;;;;;;22.87;29.59;153028.34;5064459;28;20039;-65
2023/05/13 11:14:18;;;;;;;8.48;3.28;;;;;;;22.98;29.49;153054.22;5069578;28;20036;-65
2023/05/13 11:17:06;;;;;;;6.28;3.35;;;;;;;23.01;29.24;153063.25;5063358;28;20139;-66
2023/05/13 11:19:45;;;;;;;8.40;3.28;;;;;;;22.92;27.74;153041.25;5072535;28;20032;-64
2023/05/13 11:22:21;;;;;;;17.83;4.30;;;;;;;;;;5073430;28;20059;-65
2023/05/13 11:25:03;;;;;;;5.85;3.00;;;;;;;22.87;27.04;153028.34;5072094;28;20052;-65
2023/05/13 11:27:36;;;;;;;6.55;3.00;;;;;;;22.95;29.68;153046.44;5072100;28;20032;-66